Sherman Oaks, CA (91495)

8:16 PM PDT on October 25, 2014 (GMT -0700)
Hesby Oaks | Change Station
CLOSE
Current Station
Personal Weather Station
Location: Encino, CA
Elevation: 705 ft
Nearby Weather Stations

Elev 705 ft 34.16 °N, 118.48 °W | Updated 4 seconds ago

Clear
Clear
68.7 °F
Feels Like 68.7 °F
N
2.9
Wind Variable Wind from West
Gusts 4.0 mph

Today
High -- | Low -- °F
--% Chance of Precip.
Yesterday
High -- | Low -- °F
Precip. -- in
7:07 AM 6:07 PM
Waxing Crescent, 5% visible
Pressure 30.00 in
Visibility 10.0 miles
Clouds Clear
Dew Point 54 °F
Humidity 59%
Rainfall 0.00 in
Snow Depth Not available.
UV 0.0 out of 12
Pollen 3.80 out of 12
Ozone Good
PM2.5 Moderate
Flu Activity Sporadic
METAR KVNY 260251Z AUTO 26004KT 10SM CLR 21/12 A3001 RMK AO2 SLP157 T02060117 53008 TSNO

More Conditions Fewer Conditions

Pressure 30.00 in
Visibility 10.0 miles
Clouds Clear
Dew Point 54 °F
Humidity 59%
Rainfall 0.00 in
Snow Depth Not available.
UV 0.0 out of 12
Pollen 3.80 out of 12
Ozone Good
PM2.5 Moderate
Flu Activity Sporadic
METAR KVNY 260251Z AUTO 26004KT 10SM CLR 21/12 A3001 RMK AO2 SLP157 T02060117 53008 TSNO

More Conditions Fewer Conditions

10-Day Weather Forecast

Almanac

Astronomy

Oct. 25, 2014 Rise Set
Actual Time 7:07 AM PDT 6:07 PM PDT
Civil Twilight 6:41 AM PDT 6:33 PM PDT
Nautical Twilight 6:12 AM PDT 7:02 PM PDT
Astronomical Twilight 5:43 AM PDT 7:31 PM PDT
Moon 8:47 AM PDT (10/25) 7:38 PM PDT (10/25)
Length of Visible Light 11h 51m
Length of Day
11h 00m
Tomorrow will be 1m 56s shorter.
Waxing Crescent, 5% of the Moon is Illuminated
Today
Waxing Crescent
Oct 30
First Quarter
Nov 6
Full
Nov 14
Last Quarter
Nov 22
New

Today's Extremes

State Highs State Lows

Community

WunderPhotos

Upload Photos

1,765,093 photos uploaded!

Nearby

Air Quality

  Air Quality AQ Index Pollutant
Yesterday Moderate
PM2.5
Yesterday Good
OZONE
Current Moderate
PM2.5
Current Good
OZONE
Sunday Good
PM10
Sunday Good
OZONE
Sunday Good
CO
Sunday Good
NO2

Snow Depth

Station Depth Elevation
Virginia Lakes Ridge 0 in 9200 ft
Leavitt Lake 0 in 9400 ft
Sonora Pass 0 in 8800 ft
Poison Flat 0 in 7900 ft
Ebbetts Pass 0 in 8700 ft

Earthquake Activity

City Distance Mag. Time & Date
Barstow, California 111 miles 2.9 2:48 PM PDT
2014-10-25
Lone Pine, California 138 miles 3.6 7:31 AM PDT
2014-10-25
Running Springs, California 81 miles 3.1 4:07 AM PDT
2014-10-25
Brea, California 35 miles 2.9 3:35 PM PDT
2014-10-23
Minimum magnitude displayed is 2.5.

Coastal Water Temperatures

Place Temperature
Santa Monica Pier 70.0 °F
Los Angeles, CA 69.1 °F
La Jolla, CA 72.0 °F

Nearby Weather Stations